sensor_id;sensor_type;location;lat;lon;timestamp;temperature;humidity
49385;DHT22;36795;45.028;38.968;2023-06-10T00:01:41;23.50;61.20
49385;DHT22;36795;45.028;38.968;2023-06-10T00:04:29;23.50;61.20
49385;DHT22;36795;45.028;38.968;2023-06-10T00:07:15;23.50;61.00
49385;DHT22;36795;45.028;38.968;2023-06-10T00:10:01;23.50;61.00
49385;DHT22;36795;45.028;38.968;2023-06-10T00:12:50;23.50;61.00
49385;DHT22;36795;45.028;38.968;2023-06-10T00:15:38;23.50;60.90
49385;DHT22;36795;45.028;38.968;2023-06-10T00:18:24;23.40;60.80
49385;DHT22;36795;45.028;38.968;2023-06-10T00:21:13;23.40;60.70
49385;DHT22;36795;45.028;38.968;2023-06-10T00:23:58;23.40;60.50
49385;DHT22;36795;45.028;38.968;2023-06-10T00:26:49;23.40;60.50
49385;DHT22;36795;45.028;38.968;2023-06-10T00:29:35;23.40;60.40
49385;DHT22;36795;45.028;38.968;2023-06-10T00:32:21;23.40;60.50
49385;DHT22;36795;45.028;38.968;2023-06-10T00:35:07;23.40;60.50
49385;DHT22;36795;45.028;38.968;2023-06-10T00:37:53;23.40;60.70
49385;DHT22;36795;45.028;38.968;2023-06-10T00:40:40;23.40;60.80
49385;DHT22;36795;45.028;38.968;2023-06-10T00:43:29;23.30;60.90
49385;DHT22;36795;45.028;38.968;2023-06-10T00:46:15;23.30;61.00
49385;DHT22;36795;45.028;38.968;2023-06-10T00:49:02;23.30;61.00
49385;DHT22;36795;45.028;38.968;2023-06-10T00:51:48;23.20;61.00
49385;DHT22;36795;45.028;38.968;2023-06-10T00:54:35;23.20;61.20
49385;DHT22;36795;45.028;38.968;2023-06-10T00:57:22;23.20;61.10
49385;DHT22;36795;45.028;38.968;2023-06-10T01:00:08;23.10;61.20
49385;DHT22;36795;45.028;38.968;2023-06-10T01:02:55;23.10;61.30
49385;DHT22;36795;45.028;38.968;2023-06-10T01:05:41;23.00;61.20
49385;DHT22;36795;45.028;38.968;2023-06-10T01:08:50;22.90;61.10
49385;DHT22;36795;45.028;38.968;2023-06-10T01:11:46;22.90;61.20
49385;DHT22;36795;45.028;38.968;2023-06-10T01:14:33;22.90;61.30
49385;DHT22;36795;45.028;38.968;2023-06-10T01:17:19;22.80;61.10
49385;DHT22;36795;45.028;38.968;2023-06-10T01:20:06;22.80;60.90
49385;DHT22;36795;45.028;38.968;2023-06-10T01:23:01;22.80;60.40
49385;DHT22;36795;45.028;38.968;2023-06-10T01:25:56;22.90;60.20
49385;DHT22;36795;45.028;38.968;2023-06-10T01:28:54;22.90;59.90
49385;DHT22;36795;45.028;38.968;2023-06-10T01:31:55;22.90;59.60
49385;DHT22;36795;45.028;38.968;2023-06-10T01:34:45;22.80;59.40
49385;DHT22;36795;45.028;38.968;2023-06-10T01:37:33;22.80;59.50
49385;DHT22;36795;45.028;38.968;2023-06-10T01:40:20;22.80;59.50
49385;DHT22;36795;45.028;38.968;2023-06-10T01:43:06;22.80;59.40
49385;DHT22;36795;45.028;38.968;2023-06-10T01:45:53;22.80;59.30
49385;DHT22;36795;45.028;38.968;2023-06-10T01:48:38;22.80;59.30
49385;DHT22;36795;45.028;38.968;2023-06-10T01:51:24;22.80;59.40
49385;DHT22;36795;45.028;38.968;2023-06-10T01:54:10;22.70;59.50
49385;DHT22;36795;45.028;38.968;2023-06-10T01:56:56;22.70;59.70
49385;DHT22;36795;45.028;38.968;2023-06-10T01:59:42;22.70;59.70
49385;DHT22;36795;45.028;38.968;2023-06-10T02:02:29;22.70;59.70
49385;DHT22;36795;45.028;38.968;2023-06-10T02:05:16;22.70;59.80
49385;DHT22;36795;45.028;38.968;2023-06-10T02:08:01;22.60;59.90
49385;DHT22;36795;45.028;38.968;2023-06-10T02:10:48;22.70;59.90
49385;DHT22;36795;45.028;38.968;2023-06-10T02:13:33;22.70;59.90
49385;DHT22;36795;45.028;38.968;2023-06-10T02:16:19;22.70;59.80
49385;DHT22;36795;45.028;38.968;2023-06-10T02:19:06;22.80;59.90
49385;DHT22;36795;45.028;38.968;2023-06-10T02:21:53;22.80;59.90
49385;DHT22;36795;45.028;38.968;2023-06-10T02:24:40;22.70;60.00
49385;DHT22;36795;45.028;38.968;2023-06-10T02:27:27;22.70;60.10
49385;DHT22;36795;45.028;38.968;2023-06-10T02:30:14;22.70;60.30
49385;DHT22;36795;45.028;38.968;2023-06-10T02:33:01;22.60;60.50
49385;DHT22;36795;45.028;38.968;2023-06-10T02:35:48;22.70;60.60
49385;DHT22;36795;45.028;38.968;2023-06-10T02:38:35;22.60;60.80
49385;DHT22;36795;45.028;38.968;2023-06-10T02:41:21;22.60;61.20
49385;DHT22;36795;45.028;38.968;2023-06-10T02:44:09;22.50;61.50
49385;DHT22;36795;45.028;38.968;2023-06-10T02:46:55;22.50;62.10
49385;DHT22;36795;45.028;38.968;2023-06-10T02:49:41;22.50;62.90
49385;DHT22;36795;45.028;38.968;2023-06-10T02:52:28;22.50;63.30
49385;DHT22;36795;45.028;38.968;2023-06-10T02:55:14;22.40;63.60
49385;DHT22;36795;45.028;38.968;2023-06-10T02:58:02;22.40;63.70
49385;DHT22;36795;45.028;38.968;2023-06-10T03:00:49;22.40;63.50
49385;DHT22;36795;45.028;38.968;2023-06-10T03:03:35;22.40;63.30
49385;DHT22;36795;45.028;38.968;2023-06-10T03:06:23;22.40;63.10
49385;DHT22;36795;45.028;38.968;2023-06-10T03:09:12;22.50;62.90
49385;DHT22;36795;45.028;38.968;2023-06-10T03:11:59;22.40;62.80
49385;DHT22;36795;45.028;38.968;2023-06-10T03:14:47;22.50;62.60
49385;DHT22;36795;45.028;38.968;2023-06-10T03:17:34;22.40;62.50
49385;DHT22;36795;45.028;38.968;2023-06-10T03:20:20;22.40;62.60
49385;DHT22;36795;45.028;38.968;2023-06-10T03:23:09;22.40;62.80
49385;DHT22;36795;45.028;38.968;2023-06-10T03:25:55;22.40;62.90
49385;DHT22;36795;45.028;38.968;2023-06-10T03:28:42;22.40;62.80
49385;DHT22;36795;45.028;38.968;2023-06-10T03:31:28;22.40;62.90
49385;DHT22;36795;45.028;38.968;2023-06-10T03:34:14;22.40;63.00
49385;DHT22;36795;45.028;38.968;2023-06-10T03:37:00;22.40;63.20
49385;DHT22;36795;45.028;38.968;2023-06-10T03:39:46;22.50;63.30
49385;DHT22;36795;45.028;38.968;2023-06-10T03:42:32;22.50;63.30
49385;DHT22;36795;45.028;38.968;2023-06-10T03:45:19;22.60;63.50
49385;DHT22;36795;45.028;38.968;2023-06-10T03:48:05;22.60;63.60
49385;DHT22;36795;45.028;38.968;2023-06-10T03:50:52;22.60;63.70
49385;DHT22;36795;45.028;38.968;2023-06-10T03:53:38;22.60;63.80
49385;DHT22;36795;45.028;38.968;2023-06-10T03:56:25;22.60;63.90
49385;DHT22;36795;45.028;38.968;2023-06-10T03:59:11;22.70;64.00
49385;DHT22;36795;45.028;38.968;2023-06-10T04:01:57;22.70;64.00
49385;DHT22;36795;45.028;38.968;2023-06-10T04:04:44;22.80;64.00
49385;DHT22;36795;45.028;38.968;2023-06-10T04:07:29;22.90;63.80
49385;DHT22;36795;45.028;38.968;2023-06-10T04:10:17;23.00;63.40
49385;DHT22;36795;45.028;38.968;2023-06-10T04:13:03;23.00;63.00
49385;DHT22;36795;45.028;38.968;2023-06-10T04:15:50;23.00;63.00
49385;DHT22;36795;45.028;38.968;2023-06-10T04:18:36;23.00;63.00
49385;DHT22;36795;45.028;38.968;2023-06-10T04:21:23;23.00;62.90
49385;DHT22;36795;45.028;38.968;2023-06-10T04:24:10;22.90;62.70
49385;DHT22;36795;45.028;38.968;2023-06-10T04:26:57;22.90;62.60
49385;DHT22;36795;45.028;38.968;2023-06-10T04:29:43;22.90;62.70
49385;DHT22;36795;45.028;38.968;2023-06-10T04:32:30;22.90;62.70
49385;DHT22;36795;45.028;38.968;2023-06-10T04:35:16;23.10;62.40
49385;DHT22;36795;45.028;38.968;2023-06-10T04:38:02;23.20;62.20
49385;DHT22;36795;45.028;38.968;2023-06-10T04:40:49;23.10;61.70
49385;DHT22;36795;45.028;38.968;2023-06-10T04:43:35;23.20;61.40
49385;DHT22;36795;45.028;38.968;2023-06-10T04:46:21;23.20;61.40
49385;DHT22;36795;45.028;38.968;2023-06-10T04:49:08;23.20;61.10
49385;DHT22;36795;45.028;38.968;2023-06-10T04:51:53;23.20;60.80
49385;DHT22;36795;45.028;38.968;2023-06-10T04:54:40;23.30;60.50
49385;DHT22;36795;45.028;38.968;2023-06-10T04:57:26;23.40;60.20
49385;DHT22;36795;45.028;38.968;2023-06-10T05:00:13;23.50;60.00
49385;DHT22;36795;45.028;38.968;2023-06-10T05:02:59;23.60;59.90
49385;DHT22;36795;45.028;38.968;2023-06-10T05:05:45;23.60;59.90
49385;DHT22;36795;45.028;38.968;2023-06-10T05:08:31;23.60;60.60
49385;DHT22;36795;45.028;38.968;2023-06-10T05:11:17;23.70;59.80
49385;DHT22;36795;45.028;38.968;2023-06-10T05:14:03;23.80;59.50
49385;DHT22;36795;45.028;38.968;2023-06-10T05:16:49;23.80;59.40
49385;DHT22;36795;45.028;38.968;2023-06-10T05:19:35;23.70;59.50
49385;DHT22;36795;45.028;38.968;2023-06-10T05:22:23;23.70;59.40
49385;DHT22;36795;45.028;38.968;2023-06-10T05:25:12;23.60;59.60
49385;DHT22;36795;45.028;38.968;2023-06-10T05:27:59;23.60;59.60
49385;DHT22;36795;45.028;38.968;2023-06-10T05:30:45;23.80;59.50
49385;DHT22;36795;45.028;38.968;2023-06-10T05:33:31;23.80;59.30
49385;DHT22;36795;45.028;38.968;2023-06-10T05:36:17;23.80;59.20
49385;DHT22;36795;45.028;38.968;2023-06-10T05:39:03;23.80;59.20
49385;DHT22;36795;45.028;38.968;2023-06-10T05:41:49;23.90;59.20
49385;DHT22;36795;45.028;38.968;2023-06-10T05:44:35;23.90;59.10
49385;DHT22;36795;45.028;38.968;2023-06-10T05:47:22;23.90;58.80
49385;DHT22;36795;45.028;38.968;2023-06-10T05:50:09;24.00;58.70
49385;DHT22;36795;45.028;38.968;2023-06-10T05:52:55;24.10;58.30
49385;DHT22;36795;45.028;38.968;2023-06-10T05:55:45;24.10;58.30
49385;DHT22;36795;45.028;38.968;2023-06-10T05:58:31;24.10;58.30
49385;DHT22;36795;45.028;38.968;2023-06-10T06:01:17;24.00;58.70
49385;DHT22;36795;45.028;38.968;2023-06-10T06:04:03;24.00;58.80
49385;DHT22;36795;45.028;38.968;2023-06-10T06:06:50;24.10;58.60
49385;DHT22;36795;45.028;38.968;2023-06-10T06:09:36;24.00;58.70
49385;DHT22;36795;45.028;38.968;2023-06-10T06:12:22;24.00;58.90
49385;DHT22;36795;45.028;38.968;2023-06-10T06:15:09;24.10;58.80
49385;DHT22;36795;45.028;38.968;2023-06-10T06:17:55;24.20;58.60
49385;DHT22;36795;45.028;38.968;2023-06-10T06:20:41;24.30;58.60
49385;DHT22;36795;45.028;38.968;2023-06-10T06:23:27;24.50;58.20
49385;DHT22;36795;45.028;38.968;2023-06-10T06:26:14;24.60;57.60
49385;DHT22;36795;45.028;38.968;2023-06-10T06:29:00;24.50;57.80
49385;DHT22;36795;45.028;38.968;2023-06-10T06:31:46;24.60;57.90
49385;DHT22;36795;45.028;38.968;2023-06-10T06:34:32;24.70;57.70
49385;DHT22;36795;45.028;38.968;2023-06-10T06:37:20;24.80;57.60
49385;DHT22;36795;45.028;38.968;2023-06-10T06:40:06;24.90;57.20
49385;DHT22;36795;45.028;38.968;2023-06-10T06:42:52;25.00;57.30
49385;DHT22;36795;45.028;38.968;2023-06-10T06:45:40;25.00;57.30
49385;DHT22;36795;45.028;38.968;2023-06-10T06:48:26;24.90;57.60
49385;DHT22;36795;45.028;38.968;2023-06-10T06:51:12;24.60;58.10
49385;DHT22;36795;45.028;38.968;2023-06-10T06:53:58;24.60;58.60
49385;DHT22;36795;45.028;38.968;2023-06-10T06:56:44;24.70;58.60
49385;DHT22;36795;45.028;38.968;2023-06-10T06:59:30;24.80;58.30
49385;DHT22;36795;45.028;38.968;2023-06-10T07:02:15;25.00;58.20
49385;DHT22;36795;45.028;38.968;2023-06-10T07:05:02;25.20;58.00
49385;DHT22;36795;45.028;38.968;2023-06-10T07:07:48;25.20;58.00
49385;DHT22;36795;45.028;38.968;2023-06-10T07:10:40;25.40;57.90
49385;DHT22;36795;45.028;38.968;2023-06-10T07:13:26;25.60;57.50
49385;DHT22;36795;45.028;38.968;2023-06-10T07:16:12;25.80;56.80
49385;DHT22;36795;45.028;38.968;2023-06-10T07:18:58;26.00;56.20
49385;DHT22;36795;45.028;38.968;2023-06-10T07:21:44;26.30;55.90
49385;DHT22;36795;45.028;38.968;2023-06-10T07:24:30;26.60;55.30
49385;DHT22;36795;45.028;38.968;2023-06-10T07:27:16;26.70;54.80
49385;DHT22;36795;45.028;38.968;2023-06-10T07:30:03;26.70;54.80
49385;DHT22;36795;45.028;38.968;2023-06-10T07:32:51;26.70;54.70
49385;DHT22;36795;45.028;38.968;2023-06-10T07:35:37;26.70;54.70
49385;DHT22;36795;45.028;38.968;2023-06-10T07:38:25;26.70;54.50
49385;DHT22;36795;45.028;38.968;2023-06-10T07:41:11;26.70;54.40
49385;DHT22;36795;45.028;38.968;2023-06-10T07:43:57;26.60;55.20
49385;DHT22;36795;45.028;38.968;2023-06-10T07:46:43;26.60;54.60
49385;DHT22;36795;45.028;38.968;2023-06-10T07:49:30;26.70;54.70
49385;DHT22;36795;45.028;38.968;2023-06-10T07:52:15;26.80;54.60
49385;DHT22;36795;45.028;38.968;2023-06-10T07:55:02;26.80;54.40
49385;DHT22;36795;45.028;38.968;2023-06-10T07:57:48;26.80;54.70
49385;DHT22;36795;45.028;38.968;2023-06-10T08:00:34;27.00;54.30
49385;DHT22;36795;45.028;38.968;2023-06-10T08:03:20;27.20;54.00
49385;DHT22;36795;45.028;38.968;2023-06-10T08:06:06;27.40;53.70
49385;DHT22;36795;45.028;38.968;2023-06-10T08:08:52;27.50;53.30
49385;DHT22;36795;45.028;38.968;2023-06-10T08:11:38;27.70;52.70
49385;DHT22;36795;45.028;38.968;2023-06-10T08:14:25;27.80;52.50
49385;DHT22;36795;45.028;38.968;2023-06-10T08:17:11;27.80;52.30
49385;DHT22;36795;45.028;38.968;2023-06-10T08:19:57;28.10;51.70
49385;DHT22;36795;45.028;38.968;2023-06-10T08:22:42;28.30;51.30
49385;DHT22;36795;45.028;38.968;2023-06-10T08:25:29;28.20;51.20
49385;DHT22;36795;45.028;38.968;2023-06-10T08:28:14;27.90;51.50
49385;DHT22;36795;45.028;38.968;2023-06-10T08:31:01;27.80;52.30
49385;DHT22;36795;45.028;38.968;2023-06-10T08:33:47;27.80;52.60
49385;DHT22;36795;45.028;38.968;2023-06-10T08:36:33;27.80;52.40
49385;DHT22;36795;45.028;38.968;2023-06-10T08:39:19;27.80;52.40
49385;DHT22;36795;45.028;38.968;2023-06-10T08:45:18;27.90;52.20
49385;DHT22;36795;45.028;38.968;2023-06-10T08:48:05;27.80;52.20
49385;DHT22;36795;45.028;38.968;2023-06-10T08:50:55;27.60;52.30
49385;DHT22;36795;45.028;38.968;2023-06-10T08:53:53;27.50;52.70
49385;DHT22;36795;45.028;38.968;2023-06-10T08:56:43;27.10;53.00
49385;DHT22;36795;45.028;38.968;2023-06-10T08:59:30;27.00;53.50
49385;DHT22;36795;45.028;38.968;2023-06-10T09:02:16;27.10;53.50
49385;DHT22;36795;45.028;38.968;2023-06-10T09:05:06;27.10;53.40
49385;DHT22;36795;45.028;38.968;2023-06-10T09:07:52;27.00;54.10
49385;DHT22;36795;45.028;38.968;2023-06-10T09:10:40;26.90;53.70
49385;DHT22;36795;45.028;38.968;2023-06-10T09:13:26;26.70;53.90
49385;DHT22;36795;45.028;38.968;2023-06-10T09:16:13;26.80;54.00
49385;DHT22;36795;45.028;38.968;2023-06-10T09:18:59;26.80;54.10
49385;DHT22;36795;45.028;38.968;2023-06-10T09:21:46;27.10;54.10
49385;DHT22;36795;45.028;38.968;2023-06-10T09:24:33;27.30;53.50
49385;DHT22;36795;45.028;38.968;2023-06-10T09:27:19;27.40;53.70
49385;DHT22;36795;45.028;38.968;2023-06-10T09:30:05;27.30;53.60
49385;DHT22;36795;45.028;38.968;2023-06-10T09:32:53;27.40;53.60
49385;DHT22;36795;45.028;38.968;2023-06-10T09:35:49;27.60;53.30
49385;DHT22;36795;45.028;38.968;2023-06-10T09:38:35;28.00;52.90
49385;DHT22;36795;45.028;38.968;2023-06-10T09:41:21;28.30;52.70
49385;DHT22;36795;45.028;38.968;2023-06-10T09:44:18;28.40;52.60
49385;DHT22;36795;45.028;38.968;2023-06-10T09:47:04;28.80;52.30
49385;DHT22;36795;45.028;38.968;2023-06-10T09:49:50;29.10;51.60
49385;DHT22;36795;45.028;38.968;2023-06-10T09:52:39;29.20;51.00
49385;DHT22;36795;45.028;38.968;2023-06-10T09:55:25;29.20;51.40
49385;DHT22;36795;45.028;38.968;2023-06-10T09:58:11;29.50;50.80
49385;DHT22;36795;45.028;38.968;2023-06-10T10:00:57;29.40;50.70
49385;DHT22;36795;45.028;38.968;2023-06-10T10:03:49;29.20;50.90
49385;DHT22;36795;45.028;38.968;2023-06-10T10:06:35;29.30;51.20
49385;DHT22;36795;45.028;38.968;2023-06-10T10:09:23;29.30;50.70
49385;DHT22;36795;45.028;38.968;2023-06-10T10:12:13;29.30;51.00
49385;DHT22;36795;45.028;38.968;2023-06-10T10:14:59;29.10;51.10
49385;DHT22;36795;45.028;38.968;2023-06-10T10:18:24;28.80;51.80
49385;DHT22;36795;45.028;38.968;2023-06-10T10:21:07;28.90;52.20
49385;DHT22;36795;45.028;38.968;2023-06-10T10:24:15;29.20;51.60
49385;DHT22;36795;45.028;38.968;2023-06-10T10:27:07;29.40;51.50
49385;DHT22;36795;45.028;38.968;2023-06-10T10:29:58;29.50;51.30
49385;DHT22;36795;45.028;38.968;2023-06-10T10:32:57;29.40;51.10
49385;DHT22;36795;45.028;38.968;2023-06-10T10:35:46;29.30;51.10
49385;DHT22;36795;45.028;38.968;2023-06-10T10:38:33;29.50;51.10
49385;DHT22;36795;45.028;38.968;2023-06-10T10:41:19;30.00;50.70
49385;DHT22;36795;45.028;38.968;2023-06-10T10:44:07;30.50;49.80
49385;DHT22;36795;45.028;38.968;2023-06-10T10:46:56;30.90;48.90
49385;DHT22;36795;45.028;38.968;2023-06-10T10:49:50;30.90;49.00
49385;DHT22;36795;45.028;38.968;2023-06-10T10:52:53;30.80;49.00
49385;DHT22;36795;45.028;38.968;2023-06-10T10:55:39;30.70;49.40
49385;DHT22;36795;45.028;38.968;2023-06-10T10:58:26;30.70;49.20
49385;DHT22;36795;45.028;38.968;2023-06-10T11:01:13;30.90;49.00
49385;DHT22;36795;45.028;38.968;2023-06-10T11:04:07;30.90;48.90
49385;DHT22;36795;45.028;38.968;2023-06-10T11:06:54;30.90;49.20
49385;DHT22;36795;45.028;38.968;2023-06-10T11:09:59;30.80;49.40
49385;DHT22;36795;45.028;38.968;2023-06-10T11:12:50;30.70;49.80
49385;DHT22;36795;45.028;38.968;2023-06-10T11:15:47;30.60;50.10
49385;DHT22;36795;45.028;38.968;2023-06-10T11:18:39;30.80;50.30
49385;DHT22;36795;45.028;38.968;2023-06-10T11:21:24;30.80;50.40
49385;DHT22;36795;45.028;38.968;2023-06-10T11:24:14;30.60;50.40
49385;DHT22;36795;45.028;38.968;2023-06-10T11:32:51;30.30;51.20
49385;DHT22;36795;45.028;38.968;2023-06-10T11:35:41;30.60;51.20
49385;DHT22;36795;45.028;38.968;2023-06-10T11:38:26;30.60;50.70
49385;DHT22;36795;45.028;38.968;2023-06-10T11:41:14;30.50;50.60
49385;DHT22;36795;45.028;38.968;2023-06-10T11:44:18;30.60;51.20
49385;DHT22;36795;45.028;38.968;2023-06-10T11:47:05;30.80;50.70
49385;DHT22;36795;45.028;38.968;2023-06-10T11:49:57;30.90;50.60
49385;DHT22;36795;45.028;38.968;2023-06-10T11:52:43;31.00;50.20
49385;DHT22;36795;45.028;38.968;2023-06-10T11:55:43;30.90;50.40
49385;DHT22;36795;45.028;38.968;2023-06-10T11:58:29;31.20;50.00
49385;DHT22;36795;45.028;38.968;2023-06-10T12:01:20;31.30;49.70
49385;DHT22;36795;45.028;38.968;2023-06-10T12:04:08;31.60;48.90
49385;DHT22;36795;45.028;38.968;2023-06-10T12:06:55;31.70;48.80
49385;DHT22;36795;45.028;38.968;2023-06-10T12:09:41;31.80;48.60
49385;DHT22;36795;45.028;38.968;2023-06-10T12:12:27;31.70;48.80
49385;DHT22;36795;45.028;38.968;2023-06-10T12:15:24;31.80;48.40
49385;DHT22;36795;45.028;38.968;2023-06-10T12:18:20;32.10;48.30
49385;DHT22;36795;45.028;38.968;2023-06-10T12:21:20;32.40;47.00
49385;DHT22;36795;45.028;38.968;2023-06-10T12:24:10;31.80;47.50
49385;DHT22;36795;45.028;38.968;2023-06-10T12:26:56;31.00;48.60
49385;DHT22;36795;45.028;38.968;2023-06-10T12:29:52;30.50;49.70
49385;DHT22;36795;45.028;38.968;2023-06-10T12:32:44;30.20;50.40
49385;DHT22;36795;45.028;38.968;2023-06-10T12:35:31;30.30;50.60
49385;DHT22;36795;45.028;38.968;2023-06-10T12:38:25;30.90;49.70
49385;DHT22;36795;45.028;38.968;2023-06-10T12:41:13;30.90;49.70
49385;DHT22;36795;45.028;38.968;2023-06-10T12:44:02;30.70;50.20
49385;DHT22;36795;45.028;38.968;2023-06-10T12:46:54;30.40;50.40
49385;DHT22;36795;45.028;38.968;2023-06-10T12:49:41;30.20;51.20
49385;DHT22;36795;45.028;38.968;2023-06-10T12:52:27;29.90;51.70
49385;DHT22;36795;45.028;38.968;2023-06-10T12:55:13;29.60;52.10
49385;DHT22;36795;45.028;38.968;2023-06-10T12:58:00;29.40;52.50
49385;DHT22;36795;45.028;38.968;2023-06-10T13:00:48;29.30;52.90
49385;DHT22;36795;45.028;38.968;2023-06-10T13:03:34;29.00;53.10
49385;DHT22;36795;45.028;38.968;2023-06-10T13:06:20;28.80;53.30
49385;DHT22;36795;45.028;38.968;2023-06-10T13:09:06;28.50;53.80
49385;DHT22;36795;45.028;38.968;2023-06-10T13:11:53;28.30;54.20
49385;DHT22;36795;45.028;38.968;2023-06-10T13:14:38;28.20;54.90
49385;DHT22;36795;45.028;38.968;2023-06-10T13:17:25;27.90;56.20
49385;DHT22;36795;45.028;38.968;2023-06-10T13:20:11;27.60;58.40
49385;DHT22;36795;45.028;38.968;2023-06-10T13:22:57;27.20;60.50
49385;DHT22;36795;45.028;38.968;2023-06-10T13:25:43;26.60;62.60
49385;DHT22;36795;45.028;38.968;2023-06-10T13:28:30;26.10;65.80
49385;DHT22;36795;45.028;38.968;2023-06-10T13:31:16;25.40;68.30
49385;DHT22;36795;45.028;38.968;2023-06-10T13:34:03;24.80;71.00
49385;DHT22;36795;45.028;38.968;2023-06-10T13:36:49;24.30;73.00
49385;DHT22;36795;45.028;38.968;2023-06-10T13:39:36;24.10;74.80
49385;DHT22;36795;45.028;38.968;2023-06-10T13:42:21;23.90;75.30
49385;DHT22;36795;45.028;38.968;2023-06-10T13:45:08;23.70;76.40
49385;DHT22;36795;45.028;38.968;2023-06-10T13:47:54;23.60;77.30
49385;DHT22;36795;45.028;38.968;2023-06-10T13:50:40;23.50;78.00
49385;DHT22;36795;45.028;38.968;2023-06-10T13:53:30;23.60;78.30
49385;DHT22;36795;45.028;38.968;2023-06-10T13:56:18;23.60;78.80
49385;DHT22;36795;45.028;38.968;2023-06-10T13:59:04;23.80;79.10
49385;DHT22;36795;45.028;38.968;2023-06-10T14:01:50;24.00;79.20
49385;DHT22;36795;45.028;38.968;2023-06-10T14:04:36;24.10;79.30
49385;DHT22;36795;45.028;38.968;2023-06-10T14:07:22;24.10;79.60
49385;DHT22;36795;45.028;38.968;2023-06-10T14:10:08;24.20;80.10
49385;DHT22;36795;45.028;38.968;2023-06-10T14:12:55;24.10;80.50
49385;DHT22;36795;45.028;38.968;2023-06-10T14:15:41;24.10;80.90
49385;DHT22;36795;45.028;38.968;2023-06-10T14:18:27;24.10;80.90
49385;DHT22;36795;45.028;38.968;2023-06-10T14:21:13;24.20;80.80
49385;DHT22;36795;45.028;38.968;2023-06-10T14:23:58;24.10;80.80
49385;DHT22;36795;45.028;38.968;2023-06-10T14:26:45;24.10;81.30
49385;DHT22;36795;45.028;38.968;2023-06-10T14:29:30;24.00;81.50
49385;DHT22;36795;45.028;38.968;2023-06-10T14:32:17;24.00;81.60
49385;DHT22;36795;45.028;38.968;2023-06-10T14:35:03;23.90;81.60
49385;DHT22;36795;45.028;38.968;2023-06-10T14:37:50;23.90;82.10
49385;DHT22;36795;45.028;38.968;2023-06-10T14:40:35;24.00;82.20
49385;DHT22;36795;45.028;38.968;2023-06-10T14:43:22;24.00;82.10
49385;DHT22;36795;45.028;38.968;2023-06-10T14:46:07;24.00;82.20
49385;DHT22;36795;45.028;38.968;2023-06-10T14:48:54;24.00;82.30
49385;DHT22;36795;45.028;38.968;2023-06-10T14:51:39;24.00;82.40
49385;DHT22;36795;45.028;38.968;2023-06-10T14:54:25;24.10;82.70
49385;DHT22;36795;45.028;38.968;2023-06-10T14:57:11;24.10;82.80
49385;DHT22;36795;45.028;38.968;2023-06-10T14:59:58;24.10;82.60
49385;DHT22;36795;45.028;38.968;2023-06-10T15:02:43;24.10;82.60
49385;DHT22;36795;45.028;38.968;2023-06-10T15:05:30;24.10;82.70
49385;DHT22;36795;45.028;38.968;2023-06-10T15:08:16;24.10;83.00
49385;DHT22;36795;45.028;38.968;2023-06-10T15:11:02;24.10;83.10
49385;DHT22;36795;45.028;38.968;2023-06-10T15:13:48;24.10;83.40
49385;DHT22;36795;45.028;38.968;2023-06-10T15:16:34;24.10;83.30
49385;DHT22;36795;45.028;38.968;2023-06-10T15:19:20;24.10;83.30
49385;DHT22;36795;45.028;38.968;2023-06-10T15:22:06;24.10;83.30
49385;DHT22;36795;45.028;38.968;2023-06-10T15:24:52;24.00;82.90
49385;DHT22;36795;45.028;38.968;2023-06-10T15:27:38;23.90;82.20
49385;DHT22;36795;45.028;38.968;2023-06-10T15:30:24;23.80;82.00
49385;DHT22;36795;45.028;38.968;2023-06-10T15:33:11;23.70;81.90
49385;DHT22;36795;45.028;38.968;2023-06-10T15:35:57;23.70;82.00
49385;DHT22;36795;45.028;38.968;2023-06-10T15:38:43;23.70;82.50
49385;DHT22;36795;45.028;38.968;2023-06-10T15:41:29;23.70;82.30
49385;DHT22;36795;45.028;38.968;2023-06-10T15:44:15;23.60;82.30
49385;DHT22;36795;45.028;38.968;2023-06-10T15:47:01;23.60;82.40
49385;DHT22;36795;45.028;38.968;2023-06-10T15:49:47;23.60;82.30
49385;DHT22;36795;45.028;38.968;2023-06-10T15:52:33;23.60;82.30
49385;DHT22;36795;45.028;38.968;2023-06-10T15:55:19;23.60;82.40
49385;DHT22;36795;45.028;38.968;2023-06-10T15:58:05;23.60;82.50
49385;DHT22;36795;45.028;38.968;2023-06-10T16:00:51;23.60;82.50
49385;DHT22;36795;45.028;38.968;2023-06-10T16:03:38;23.50;82.50
49385;DHT22;36795;45.028;38.968;2023-06-10T16:06:23;23.50;82.70
49385;DHT22;36795;45.028;38.968;2023-06-10T16:09:09;23.50;82.70
49385;DHT22;36795;45.028;38.968;2023-06-10T16:11:56;23.50;82.60
49385;DHT22;36795;45.028;38.968;2023-06-10T16:14:42;23.50;82.60
49385;DHT22;36795;45.028;38.968;2023-06-10T16:17:28;23.40;82.60
49385;DHT22;36795;45.028;38.968;2023-06-10T16:20:14;23.30;82.60
49385;DHT22;36795;45.028;38.968;2023-06-10T16:23:03;23.30;83.00
49385;DHT22;36795;45.028;38.968;2023-06-10T16:25:49;23.30;83.30
49385;DHT22;36795;45.028;38.968;2023-06-10T16:28:35;23.30;83.20
49385;DHT22;36795;45.028;38.968;2023-06-10T16:31:21;23.30;83.50
49385;DHT22;36795;45.028;38.968;2023-06-10T16:34:07;23.30;83.40
49385;DHT22;36795;45.028;38.968;2023-06-10T16:36:54;23.20;83.30
49385;DHT22;36795;45.028;38.968;2023-06-10T16:39:40;23.20;83.60
49385;DHT22;36795;45.028;38.968;2023-06-10T16:42:26;23.30;83.70
49385;DHT22;36795;45.028;38.968;2023-06-10T16:45:12;23.20;83.70
49385;DHT22;36795;45.028;38.968;2023-06-10T16:47:58;23.20;84.10
49385;DHT22;36795;45.028;38.968;2023-06-10T16:50:44;23.30;84.40
49385;DHT22;36795;45.028;38.968;2023-06-10T16:53:30;23.30;84.30
49385;DHT22;36795;45.028;38.968;2023-06-10T16:56:16;23.20;84.20
49385;DHT22;36795;45.028;38.968;2023-06-10T16:59:03;23.20;84.40
49385;DHT22;36795;45.028;38.968;2023-06-10T17:01:48;23.20;84.60
49385;DHT22;36795;45.028;38.968;2023-06-10T17:04:35;23.10;84.70
49385;DHT22;36795;45.028;38.968;2023-06-10T17:07:20;23.10;84.90
49385;DHT22;36795;45.028;38.968;2023-06-10T17:10:09;23.10;85.00
49385;DHT22;36795;45.028;38.968;2023-06-10T17:12:55;23.10;85.40
49385;DHT22;36795;45.028;38.968;2023-06-10T17:15:41;23.00;85.60
49385;DHT22;36795;45.028;38.968;2023-06-10T17:18:27;23.00;85.80
49385;DHT22;36795;45.028;38.968;2023-06-10T17:21:13;23.00;85.70
49385;DHT22;36795;45.028;38.968;2023-06-10T17:23:59;23.00;85.70
49385;DHT22;36795;45.028;38.968;2023-06-10T17:26:45;23.00;85.70
49385;DHT22;36795;45.028;38.968;2023-06-10T17:29:31;23.00;85.70